Time;durP1;ratioP1;P1;durP2;ratioP2;P2;SDS_P1;SDS_P2;PMS_P1;PMS_P2;Temp;Humidity;BMP_temperature;BMP_pressure;BME280_temperature;BME280_humidity;BME280_pressure;Samples;Min_cycle;Max_cycle;Signal;HPM_P1;HPM_P2
2022/10/14 00:00:39;;;;;;;8.63;5.68;;;;;;;;;;5028276;28;20090;-78
2022/10/14 00:03:05;;;;;;;6.95;5.35;;;;;;;;;;5023448;28;20052;-78
2022/10/14 00:05:38;;;;;;;6.78;5.40;;;;;;;;;;5022671;28;20050;-78
2022/10/14 00:08:04;;;;;;;7.45;5.20;;;;;;;;;;5029833;28;20053;-78
2022/10/14 00:10:30;;;;;;;6.45;5.70;;;;;;;;;;5019542;28;20084;-78
2022/10/14 00:12:56;;;;;;;6.07;5.47;;;;;;;;;;5023881;28;20061;-78
2022/10/14 00:15:22;;;;;;;6.32;5.30;;;;;;;;;;5034934;28;20072;-78
2022/10/14 00:17:48;;;;;;;7.45;5.65;;;;;;;;;;5038764;28;20128;-78
2022/10/14 00:20:14;;;;;;;6.57;5.57;;;;;;;;;;5029917;28;20052;-78
2022/10/14 00:22:40;;;;;;;6.00;5.32;;;;;;;;;;5022305;28;20543;-78
2022/10/14 00:25:06;;;;;;;6.28;5.68;;;;;;;;;;5026386;28;20093;-78
2022/10/14 00:27:32;;;;;;;7.07;5.85;;;;;;;;;;5029497;28;20069;-78
2022/10/14 00:29:58;;;;;;;6.35;5.38;;;;;;;;;;5030673;28;20045;-78
2022/10/14 00:32:24;;;;;;;7.05;5.75;;;;;;;;;;5025808;28;20042;-78
2022/10/14 00:34:50;;;;;;;6.65;5.47;;;;;;;;;;5017410;28;20068;-78
2022/10/14 00:37:16;;;;;;;6.65;5.65;;;;;;;;;;5029064;28;20478;-78
2022/10/14 00:39:45;;;;;;;6.50;5.03;;;;;;;;;;5028974;28;20053;-78
2022/10/14 00:42:12;;;;;;;12.50;5.35;;;;;;;;;;5026260;28;20096;-78
2022/10/14 00:44:44;;;;;;;9.40;4.88;;;;;;;;;;5028666;28;20140;-78
2022/10/14 00:47:10;;;;;;;14.57;5.60;;;;;;;;;;5028158;28;20065;-77
2022/10/14 00:49:38;;;;;;;17.90;5.82;;;;;;;;;;5022191;28;20047;-78
2022/10/14 00:52:07;;;;;;;14.52;5.75;;;;;;;;;;5020959;28;20049;-78
2022/10/14 00:54:34;;;;;;;103.53;9.07;;;;;;;;;;5022319;28;20520;-78
2022/10/14 00:57:01;;;;;;;29.35;6.05;;;;;;;;;;5024706;28;20583;-78
2022/10/14 00:59:27;;;;;;;32.15;6.32;;;;;;;;;;5019632;28;20144;-78
2022/10/14 01:01:53;;;;;;;79.45;7.88;;;;;;;;;;5029921;28;20050;-78
2022/10/14 01:04:20;;;;;;;78.22;7.18;;;;;;;;;;5028551;28;20054;-78
2022/10/14 01:06:52;;;;;;;51.50;6.80;;;;;;;;;;5019594;28;20038;-77
2022/10/14 01:09:38;;;;;;;59.38;7.30;;;;;;;;;;5025394;28;20057;-78
2022/10/14 01:12:04;;;;;;;36.95;5.88;;;;;;;;;;5027945;28;20049;-78
2022/10/14 01:14:48;;;;;;;42.03;6.35;;;;;;;;;;5022226;28;20488;-78
2022/10/14 01:17:26;;;;;;;31.63;6.05;;;;;;;;;;5025792;28;20400;-78
2022/10/14 01:20:04;;;;;;;24.10;5.28;;;;;;;;;;5026036;28;20045;-78
2022/10/14 01:22:35;;;;;;;19.73;4.55;;;;;;;;;;5020743;28;20128;-78
2022/10/14 01:25:13;;;;;;;15.65;4.65;;;;;;;;;;5023928;28;20073;-77
2022/10/14 01:27:48;;;;;;;14.45;5.30;;;;;;;;;;5021998;28;20049;-78
2022/10/14 01:30:17;;;;;;;11.13;4.72;;;;;;;;;;5024092;28;20117;-78
2022/10/14 01:32:51;;;;;;;8.02;4.95;;;;;;;;;;5023630;28;20041;-78
2022/10/14 01:35:24;;;;;;;5.43;4.10;;;;;;;;;;5023699;28;20077;-78
2022/10/14 01:37:56;;;;;;;6.68;4.10;;;;;;;;;;5027879;28;20052;-78
2022/10/14 01:40:41;;;;;;;6.63;3.92;;;;;;;;;;5028099;28;20163;-78
2022/10/14 01:43:07;;;;;;;4.80;3.85;;;;;;;;;;5027507;28;20041;-78
2022/10/14 01:45:35;;;;;;;5.28;3.78;;;;;;;;;;5027310;28;20096;-78
2022/10/14 01:48:03;;;;;;;17.65;4.00;;;;;;;;;;5030089;28;20081;-78
2022/10/14 01:50:30;;;;;;;46.78;5.60;;;;;;;;;;5028367;28;20132;-78
2022/10/14 01:53:02;;;;;;;51.28;5.47;;;;;;;;;;5023170;28;20494;-77
2022/10/14 01:55:30;;;;;;;38.72;5.40;;;;;;;;;;5022109;28;20396;-77
2022/10/14 01:57:57;;;;;;;62.55;5.63;;;;;;;;;;5024229;28;20059;-77
2022/10/14 02:00:23;;;;;;;58.30;5.57;;;;;;;;;;5030064;28;20402;-78
2022/10/14 02:02:49;;;;;;;33.95;4.95;;;;;;;;;;5023156;28;20557;-77
2022/10/14 02:05:36;;;;;;;44.15;5.28;;;;;;;;;;5023074;28;20072;-77
2022/10/14 02:08:20;;;;;;;39.72;5.28;;;;;;;;;;5025206;28;20049;-77
2022/10/14 02:11:03;;;;;;;41.85;4.97;;;;;;;;;;5027727;28;20042;-77
2022/10/14 02:13:50;;;;;;;34.45;4.55;;;;;;;;;;5028542;28;20048;-78
2022/10/14 02:16:19;;;;;;;11.00;3.42;;;;;;;;;;5022900;28;20042;-77
2022/10/14 02:18:48;;;;;;;33.33;4.55;;;;;;;;;;5028522;28;20512;-77
2022/10/14 02:21:29;;;;;;;70.18;6.53;;;;;;;;;;5031005;28;20037;-77
2022/10/14 02:24:00;;;;;;;43.95;7.00;;;;;;;;;;5031403;28;20504;-77
2022/10/14 02:26:26;;;;;;;118.28;8.60;;;;;;;;;;5024142;28;20042;-78
2022/10/14 02:28:53;;;;;;;119.10;8.68;;;;;;;;;;5029660;28;20057;-77
2022/10/14 02:31:19;;;;;;;80.15;7.88;;;;;;;;;;5028983;28;20530;-77
2022/10/14 02:33:49;;;;;;;58.60;6.93;;;;;;;;;;5026221;28;20056;-77
2022/10/14 02:36:17;;;;;;;55.15;7.10;;;;;;;;;;5030249;28;20037;-77
2022/10/14 02:38:44;;;;;;;73.28;6.80;;;;;;;;;;5028397;28;20049;-77
2022/10/14 02:41:13;;;;;;;46.42;7.25;;;;;;;;;;5030269;28;20444;-78
2022/10/14 02:43:39;;;;;;;44.10;6.57;;;;;;;;;;5023595;28;20056;-78
2022/10/14 02:46:05;;;;;;;60.35;7.32;;;;;;;;;;5029489;28;20055;-78
2022/10/14 02:48:31;;;;;;;31.50;6.88;;;;;;;;;;5020753;28;20050;-77
2022/10/14 02:50:57;;;;;;;65.97;8.40;;;;;;;;;;5026488;28;20057;-78
2022/10/14 02:53:23;;;;;;;32.58;8.02;;;;;;;;;;5031118;28;20057;-77
2022/10/14 02:55:49;;;;;;;41.42;8.93;;;;;;;;;;5030613;28;20053;-77
2022/10/14 02:58:15;;;;;;;67.55;10.13;;;;;;;;;;5026494;28;20048;-77
2022/10/14 03:00:41;;;;;;;49.90;10.18;;;;;;;;;;5026639;28;20396;-78
2022/10/14 03:03:07;;;;;;;49.78;11.00;;;;;;;;;;5030892;28;20084;-77
2022/10/14 03:05:33;;;;;;;53.40;11.68;;;;;;;;;;5028916;28;20037;-78
2022/10/14 03:07:59;;;;;;;78.05;12.77;;;;;;;;;;5028897;28;20053;-77
2022/10/14 03:10:26;;;;;;;72.47;12.02;;;;;;;;;;5022546;28;20082;-77
2022/10/14 03:12:58;;;;;;;123.85;13.32;;;;;;;;;;5026513;28;20075;-78
2022/10/14 03:15:24;;;;;;;110.28;13.98;;;;;;;;;;5027663;28;20570;-77
2022/10/14 03:17:50;;;;;;;66.07;12.75;;;;;;;;;;5026080;28;20053;-78
2022/10/14 03:20:16;;;;;;;98.70;13.93;;;;;;;;;;5027989;28;20045;-78
2022/10/14 03:22:42;;;;;;;142.63;16.10;;;;;;;;;;5025657;28;20052;-77
2022/10/14 03:25:08;;;;;;;133.73;16.67;;;;;;;;;;5029585;28;20049;-77
2022/10/14 03:27:34;;;;;;;109.32;15.82;;;;;;;;;;5028911;28;20046;-77
2022/10/14 03:30:00;;;;;;;107.68;17.45;;;;;;;;;;5030523;28;20049;-77
2022/10/14 03:32:26;;;;;;;128.07;17.33;;;;;;;;;;5021364;28;20100;-77
2022/10/14 03:34:52;;;;;;;137.68;17.73;;;;;;;;;;5029367;28;20119;-77
2022/10/14 03:37:18;;;;;;;66.05;16.67;;;;;;;;;;5028137;28;20041;-77
2022/10/14 03:39:47;;;;;;;76.22;16.73;;;;;;;;;;5025983;28;20041;-77
2022/10/14 03:42:13;;;;;;;76.07;16.95;;;;;;;;;;5034184;28;20572;-78
2022/10/14 03:44:39;;;;;;;143.38;20.35;;;;;;;;;;5030633;28;20079;-77
2022/10/14 03:47:05;;;;;;;64.75;17.92;;;;;;;;;;5030768;28;20041;-77
2022/10/14 03:49:31;;;;;;;101.75;19.88;;;;;;;;;;5025463;28;20456;-77
2022/10/14 03:51:57;;;;;;;193.90;23.08;;;;;;;;;;5030720;28;20546;-77
2022/10/14 03:54:23;;;;;;;129.80;21.38;;;;;;;;;;5029425;28;20408;-78
2022/10/14 03:56:50;;;;;;;158.32;21.65;;;;;;;;;;5027970;28;20049;-77
2022/10/14 03:59:16;;;;;;;120.05;19.63;;;;;;;;;;5021020;28;20432;-77
2022/10/14 04:01:44;;;;;;;118.05;19.73;;;;;;;;;;5022898;28;20128;-77
2022/10/14 04:04:13;;;;;;;143.75;19.92;;;;;;;;;;5028554;28;20195;-77
2022/10/14 04:06:39;;;;;;;143.65;20.73;;;;;;;;;;5033582;28;20175;-77
2022/10/14 04:09:05;;;;;;;173.35;22.55;;;;;;;;;;5035090;28;20496;-77
2022/10/14 04:11:31;;;;;;;92.13;19.15;;;;;;;;;;5023937;28;20091;-78
2022/10/14 04:13:58;;;;;;;135.77;20.90;;;;;;;;;;5019186;28;20160;-77
2022/10/14 04:16:24;;;;;;;158.43;21.83;;;;;;;;;;5030182;28;20034;-77
2022/10/14 04:18:50;;;;;;;88.05;17.25;;;;;;;;;;5022033;28;20053;-78
2022/10/14 04:21:16;;;;;;;169.05;20.83;;;;;;;;;;5026650;28;20057;-77
2022/10/14 04:23:42;;;;;;;161.43;20.23;;;;;;;;;;5023745;28;20473;-77
2022/10/14 04:26:08;;;;;;;93.75;20.45;;;;;;;;;;5017709;28;20045;-77
2022/10/14 04:28:35;;;;;;;107.03;20.33;;;;;;;;;;5031086;28;20060;-77
2022/10/14 04:31:01;;;;;;;55.53;16.88;;;;;;;;;;5025602;28;20266;-77
2022/10/14 04:33:27;;;;;;;150.95;19.75;;;;;;;;;;5026202;28;20492;-77
2022/10/14 04:35:57;;;;;;;61.45;16.40;;;;;;;;;;5026321;28;20041;-77
2022/10/14 04:38:24;;;;;;;103.93;17.80;;;;;;;;;;5027293;28;20563;-77
2022/10/14 04:40:50;;;;;;;62.55;13.80;;;;;;;;;;5025459;28;20415;-77
2022/10/14 04:43:18;;;;;;;70.88;12.50;;;;;;;;;;5017894;28;20046;-77
2022/10/14 04:45:45;;;;;;;58.97;11.60;;;;;;;;;;5028229;28;20049;-77
2022/10/14 04:48:11;;;;;;;57.15;10.30;;;;;;;;;;5022035;28;20045;-77
2022/10/14 04:50:37;;;;;;;62.85;10.43;;;;;;;;;;5030264;28;20033;-77
2022/10/14 04:53:03;;;;;;;42.03;9.43;;;;;;;;;;5033165;28;20129;-77
2022/10/14 04:55:29;;;;;;;92.72;12.00;;;;;;;;;;5020772;28;20449;-77
2022/10/14 04:57:55;;;;;;;87.93;11.63;;;;;;;;;;5018243;28;20079;-77
2022/10/14 05:00:21;;;;;;;52.08;10.88;;;;;;;;;;5024671;28;20124;-77
2022/10/14 05:02:47;;;;;;;60.83;11.07;;;;;;;;;;5023778;28;20033;-77
2022/10/14 05:05:16;;;;;;;73.88;10.82;;;;;;;;;;5031022;28;20049;-77
2022/10/14 05:07:42;;;;;;;56.67;11.32;;;;;;;;;;5027127;28;20083;-77
2022/10/14 05:10:11;;;;;;;69.28;10.77;;;;;;;;;;5026725;28;20100;-77
2022/10/14 05:12:37;;;;;;;42.72;10.30;;;;;;;;;;5028930;28;20389;-77
2022/10/14 05:15:04;;;;;;;60.35;10.88;;;;;;;;;;5026732;28;20055;-77
2022/10/14 05:17:31;;;;;;;52.70;10.70;;;;;;;;;;5022740;28;20096;-77
2022/10/14 05:19:57;;;;;;;58.20;10.57;;;;;;;;;;5021303;28;20050;-76
2022/10/14 05:22:24;;;;;;;57.20;10.85;;;;;;;;;;5018292;28;20128;-77
2022/10/14 05:24:50;;;;;;;113.47;13.07;;;;;;;;;;5015944;28;20099;-77
2022/10/14 05:27:16;;;;;;;61.47;11.07;;;;;;;;;;5042926;28;20120;-76
2022/10/14 05:29:42;;;;;;;72.90;10.60;;;;;;;;;;5020953;28;20042;-77
2022/10/14 05:32:08;;;;;;;62.85;11.25;;;;;;;;;;5021691;28;20057;-76
2022/10/14 05:34:34;;;;;;;79.43;10.73;;;;;;;;;;5030166;28;20049;-77
2022/10/14 05:37:01;;;;;;;99.20;11.25;;;;;;;;;;5014460;28;20112;-77
2022/10/14 05:39:27;;;;;;;70.63;11.07;;;;;;;;;;5012626;28;20915;-77
2022/10/14 05:41:53;;;;;;;87.43;12.55;;;;;;;;;;5027316;28;20057;-79
2022/10/14 05:44:19;;;;;;;71.47;12.65;;;;;;;;;;5025059;28;20061;-80
2022/10/14 05:46:45;;;;;;;89.60;13.05;;;;;;;;;;5026411;28;20470;-79
2022/10/14 05:49:11;;;;;;;74.72;12.77;;;;;;;;;;5012755;28;20138;-79
2022/10/14 05:51:37;;;;;;;75.05;13.25;;;;;;;;;;5037090;28;20048;-79
2022/10/14 05:54:03;;;;;;;50.33;11.25;;;;;;;;;;5034276;28;20037;-79
2022/10/14 05:56:29;;;;;;;55.25;12.57;;;;;;;;;;5032659;28;20107;-79
2022/10/14 05:58:55;;;;;;;51.25;12.02;;;;;;;;;;5032779;28;20049;-80
2022/10/14 06:01:22;;;;;;;48.75;11.65;;;;;;;;;;5031661;28;20447;-79
2022/10/14 06:03:51;;;;;;;57.47;13.57;;;;;;;;;;5033191;28;20085;-79
2022/10/14 06:06:17;;;;;;;63.72;13.45;;;;;;;;;;5028756;28;20475;-80
2022/10/14 06:08:43;;;;;;;45.65;13.73;;;;;;;;;;5021726;28;20397;-80
2022/10/14 06:11:10;;;;;;;47.90;14.93;;;;;;;;;;5031595;28;20049;-79
2022/10/14 06:13:36;;;;;;;65.00;17.17;;;;;;;;;;5024537;28;20427;-79
2022/10/14 06:16:06;;;;;;;54.38;16.63;;;;;;;;;;5024983;28;20393;-80
2022/10/14 06:18:33;;;;;;;51.90;16.40;;;;;;;;;;5033047;28;20076;-81
2022/10/14 06:20:59;;;;;;;68.72;17.77;;;;;;;;;;5034503;28;20481;-81
2022/10/14 06:23:26;;;;;;;90.75;19.02;;;;;;;;;;5019893;28;20068;-81
2022/10/14 06:25:52;;;;;;;52.83;17.92;;;;;;;;;;5032790;28;20091;-80
2022/10/14 06:28:18;;;;;;;60.67;17.05;;;;;;;;;;5032011;28;20150;-81
2022/10/14 06:30:50;;;;;;;68.72;16.17;;;;;;;;;;5027195;28;20045;-81
2022/10/14 06:33:16;;;;;;;84.95;18.30;;;;;;;;;;5032659;28;20497;-81
2022/10/14 06:35:42;;;;;;;40.63;15.88;;;;;;;;;;5025944;28;20240;-81
2022/10/14 06:38:08;;;;;;;54.00;17.17;;;;;;;;;;5022244;28;20067;-81
2022/10/14 06:40:35;;;;;;;91.40;18.10;;;;;;;;;;5024126;28;20041;-81
2022/10/14 06:43:01;;;;;;;86.78;17.33;;;;;;;;;;5028018;28;20485;-81
2022/10/14 06:45:27;;;;;;;62.55;17.27;;;;;;;;;;5026642;28;20041;-80
2022/10/14 06:47:53;;;;;;;125.78;18.35;;;;;;;;;;5027681;28;20050;-82
2022/10/14 06:50:20;;;;;;;66.20;17.52;;;;;;;;;;5027172;28;20057;-83
2022/10/14 06:52:46;;;;;;;58.22;18.50;;;;;;;;;;5025503;28;20504;-83
2022/10/14 06:55:12;;;;;;;104.03;18.58;;;;;;;;;;5024059;28;20080;-82
2022/10/14 06:57:38;;;;;;;93.43;16.73;;;;;;;;;;5028442;28;20527;-82
2022/10/14 07:00:05;;;;;;;143.38;19.63;;;;;;;;;;5024092;28;20136;-82
2022/10/14 07:02:32;;;;;;;72.80;16.55;;;;;;;;;;5027471;28;20481;-83
2022/10/14 07:04:58;;;;;;;47.13;15.05;;;;;;;;;;5026029;28;20049;-82
2022/10/14 07:07:26;;;;;;;63.08;16.10;;;;;;;;;;5027547;28;20129;-82
2022/10/14 07:09:53;;;;;;;37.88;15.07;;;;;;;;;;5030431;28;20057;-83
2022/10/14 07:12:19;;;;;;;37.55;16.55;;;;;;;;;;5028606;28;20124;-82
2022/10/14 07:14:45;;;;;;;29.77;15.80;;;;;;;;;;5021712;28;20080;-82
2022/10/14 07:17:11;;;;;;;63.50;18.83;;;;;;;;;;5024980;28;20073;-82
2022/10/14 07:19:37;;;;;;;31.77;16.35;;;;;;;;;;5027015;28;20042;-83
2022/10/14 07:22:03;;;;;;;33.60;17.67;;;;;;;;;;5026344;28;20056;-82
2022/10/14 07:24:29;;;;;;;37.17;17.48;;;;;;;;;;5024026;28;20049;-82
2022/10/14 07:26:55;;;;;;;28.77;17.13;;;;;;;;;;5024717;28;20047;-83
2022/10/14 07:29:21;;;;;;;28.73;17.77;;;;;;;;;;5025732;28;20053;-83
2022/10/14 07:31:47;;;;;;;27.55;17.45;;;;;;;;;;5024327;28;20116;-82
2022/10/14 07:34:13;;;;;;;34.65;18.85;;;;;;;;;;5024314;28;20041;-83
2022/10/14 07:36:39;;;;;;;38.65;20.05;;;;;;;;;;5020675;28;20644;-82
2022/10/14 07:39:05;;;;;;;33.42;19.17;;;;;;;;;;5020519;28;20053;-83
2022/10/14 07:41:32;;;;;;;28.13;19.63;;;;;;;;;;5027795;28;20038;-83
2022/10/14 07:44:01;;;;;;;30.52;18.58;;;;;;;;;;5026623;28;20516;-83
2022/10/14 07:46:31;;;;;;;30.10;19.45;;;;;;;;;;5016734;28;20136;-83
2022/10/14 07:49:06;;;;;;;30.08;19.67;;;;;;;;;;5025612;28;20041;-82
2022/10/14 07:51:33;;;;;;;26.30;18.85;;;;;;;;;;5028103;28;20067;-83
2022/10/14 07:54:00;;;;;;;28.30;17.90;;;;;;;;;;5026232;28;20042;-82
2022/10/14 07:56:26;;;;;;;25.38;17.42;;;;;;;;;;5019003;28;20137;-82
2022/10/14 07:58:52;;;;;;;25.08;16.98;;;;;;;;;;5027615;28;20053;-82
2022/10/14 08:01:18;;;;;;;26.25;17.38;;;;;;;;;;5028171;28;20083;-82
2022/10/14 08:03:45;;;;;;;23.58;15.85;;;;;;;;;;5024637;28;20106;-83
2022/10/14 08:06:12;;;;;;;22.27;15.65;;;;;;;;;;5028417;28;20041;-81
2022/10/14 08:08:38;;;;;;;21.17;15.23;;;;;;;;;;5029272;28;20485;-82
2022/10/14 08:11:09;;;;;;;21.38;14.52;;;;;;;;;;5026840;28;20056;-82
2022/10/14 08:13:35;;;;;;;21.27;15.75;;;;;;;;;;5022854;28;20049;-82
2022/10/14 08:16:01;;;;;;;21.20;15.57;;;;;;;;;;5024290;28;20469;-82
2022/10/14 08:18:27;;;;;;;23.33;15.77;;;;;;;;;;5026412;28;20295;-82
2022/10/14 08:20:53;;;;;;;23.10;16.33;;;;;;;;;;5025700;28;20052;-82
2022/10/14 08:23:20;;;;;;;24.45;16.13;;;;;;;;;;5025383;28;20049;-82
2022/10/14 08:25:58;;;;;;;22.88;17.40;;;;;;;;;;5017318;28;20132;-82
2022/10/14 08:28:24;;;;;;;26.52;17.48;;;;;;;;;;5028870;28;20041;-82
2022/10/14 08:30:52;;;;;;;25.50;17.17;;;;;;;;;;5028027;28;20037;-83
2022/10/14 08:33:18;;;;;;;29.77;18.63;;;;;;;;;;5026825;28;20053;-82
2022/10/14 08:35:44;;;;;;;24.88;17.55;;;;;;;;;;5025694;28;20053;-82
2022/10/14 08:38:10;;;;;;;25.80;18.35;;;;;;;;;;5023159;28;20467;-83
2022/10/14 08:40:47;;;;;;;27.73;18.63;;;;;;;;;;5024684;28;20195;-82
2022/10/14 08:43:20;;;;;;;29.67;18.38;;;;;;;;;;5022184;28;20114;-82
2022/10/14 08:45:46;;;;;;;;;;;;;;;;;;5024617;28;20045;-82
2022/10/14 08:48:15;;;;;;;27.50;19.27;;;;;;;;;;5029729;28;19921;-82
2022/10/14 08:50:44;;;;;;;27.23;18.42;;;;;;;;;;5025640;28;20140;-82
2022/10/14 08:53:14;;;;;;;27.73;19.20;;;;;;;;;;5028362;28;20385;-82
2022/10/14 08:55:47;;;;;;;31.85;20.10;;;;;;;;;;5023069;28;20033;-81
2022/10/14 08:58:13;;;;;;;27.10;19.98;;;;;;;;;;5022611;28;20060;-81
2022/10/14 09:00:45;;;;;;;31.15;20.63;;;;;;;;;;5023971;28;20038;-81
2022/10/14 09:03:15;;;;;;;31.55;20.08;;;;;;;;;;5019761;28;20050;-82
2022/10/14 09:05:42;;;;;;;30.55;20.17;;;;;;;;;;5027585;28;20052;-82
2022/10/14 09:08:12;;;;;;;31.63;21.42;;;;;;;;;;5026312;28;20037;-82
2022/10/14 09:10:43;;;;;;;30.45;20.58;;;;;;;;;;5026353;28;20144;-82
2022/10/14 09:13:28;;;;;;;30.30;21.33;;;;;;;;;;5019866;28;20045;-82
2022/10/14 09:15:59;;;;;;;30.05;21.30;;;;;;;;;;5026116;28;20393;-82
2022/10/14 09:18:36;;;;;;;31.80;21.50;;;;;;;;;;5024502;28;20046;-81
2022/10/14 09:21:08;;;;;;;32.33;20.98;;;;;;;;;;5022268;28;20041;-82
2022/10/14 09:23:34;;;;;;;27.63;19.95;;;;;;;;;;5021471;28;20076;-82
2022/10/14 09:26:12;;;;;;;33.20;20.88;;;;;;;;;;5028184;28;20056;-82
2022/10/14 09:28:40;;;;;;;28.20;19.67;;;;;;;;;;5022435;28;20041;-82
2022/10/14 09:31:07;;;;;;;28.40;19.90;;;;;;;;;;5025567;28;20045;-82
2022/10/14 09:33:38;;;;;;;30.40;19.27;;;;;;;;;;5029032;28;20405;-82
2022/10/14 09:36:04;;;;;;;27.58;19.48;;;;;;;;;;5029312;28;21331;-82
2022/10/14 09:38:33;;;;;;;27.88;19.48;;;;;;;;;;5028409;28;20069;-83
2022/10/14 09:40:59;;;;;;;26.40;19.45;;;;;;;;;;5025163;28;20052;-82
2022/10/14 09:43:25;;;;;;;28.75;18.58;;;;;;;;;;5031388;28;20041;-82
2022/10/14 09:45:59;;;;;;;26.83;18.63;;;;;;;;;;5031435;28;20052;-82
2022/10/14 09:48:36;;;;;;;25.92;18.02;;;;;;;;;;5020813;28;20481;-82
2022/10/14 09:51:09;;;;;;;26.65;17.08;;;;;;;;;;5027437;28;20057;-82
2022/10/14 09:53:47;;;;;;;22.27;14.75;;;;;;;;;;5024871;28;21026;-81
2022/10/14 09:56:14;;;;;;;24.10;16.73;;;;;;;;;;5024649;28;20061;-82
2022/10/14 09:58:43;;;;;;;25.73;16.00;;;;;;;;;;5025143;28;20046;-82
2022/10/14 10:01:14;;;;;;;22.85;15.25;;;;;;;;;;5027486;28;20052;-82
2022/10/14 10:03:40;;;;;;;23.63;15.13;;;;;;;;;;5025856;28;20050;-82
2022/10/14 10:06:06;;;;;;;18.90;13.20;;;;;;;;;;5028633;28;20459;-82
2022/10/14 10:08:34;;;;;;;19.38;13.88;;;;;;;;;;5025120;28;20038;-83
2022/10/14 10:11:12;;;;;;;18.40;13.07;;;;;;;;;;5028573;28;20077;-82
2022/10/14 10:13:39;;;;;;;18.77;12.60;;;;;;;;;;5029061;28;20124;-82
2022/10/14 10:16:06;;;;;;;17.67;12.48;;;;;;;;;;5026537;28;20037;-81
2022/10/14 10:18:32;;;;;;;17.52;12.20;;;;;;;;;;5029286;28;20429;-82
2022/10/14 10:21:05;;;;;;;15.70;11.15;;;;;;;;;;5027335;28;20053;-81
2022/10/14 10:23:33;;;;;;;16.13;11.02;;;;;;;;;;5027875;28;20110;-82
2022/10/14 10:26:16;;;;;;;15.77;10.98;;;;;;;;;;5023860;28;20049;-82
2022/10/14 10:28:49;;;;;;;13.82;10.27;;;;;;;;;;5026519;28;20117;-82
2022/10/14 10:31:34;;;;;;;14.10;10.57;;;;;;;;;;5028534;28;20550;-82
2022/10/14 10:34:06;;;;;;;14.68;10.23;;;;;;;;;;5024014;28;20072;-81
2022/10/14 10:36:40;;;;;;;11.57;8.70;;;;;;;;;;5021222;28;20373;-81
2022/10/14 10:39:16;;;;;;;12.80;9.40;;;;;;;;;;5030067;28;20397;-82
2022/10/14 10:41:48;;;;;;;13.60;9.45;;;;;;;;;;5026834;28;20038;-81
2022/10/14 10:44:17;;;;;;;11.70;8.43;;;;;;;;;;5027660;28;20086;-81
2022/10/14 10:46:53;;;;;;;11.65;9.27;;;;;;;;;;5023458;28;20400;-81
2022/10/14 10:49:19;;;;;;;11.13;8.68;;;;;;;;;;5031055;28;20053;-80
2022/10/14 10:51:52;;;;;;;12.75;9.38;;;;;;;;;;5030825;28;20098;-81
2022/10/14 10:54:30;;;;;;;11.18;8.57;;;;;;;;;;5028243;28;20046;-81
2022/10/14 10:57:03;;;;;;;10.02;7.85;;;;;;;;;;5027313;28;20061;-81
2022/10/14 10:59:29;;;;;;;;;;;;;;;;;;5033961;28;20049;-81
2022/10/14 11:02:05;;;;;;;9.30;7.75;;;;;;;;;;5023620;28;19921;-81
2022/10/14 11:04:50;;;;;;;9.45;7.53;;;;;;;;;;5023513;28;20072;-81
2022/10/14 11:12:48;;;;;;;9.18;7.40;;;;;;;;;;5030544;28;20053;-81
2022/10/14 11:15:14;;;;;;;10.25;7.43;;;;;;;;;;5027451;28;20045;-81
2022/10/14 11:17:53;;;;;;;8.98;6.78;;;;;;;;;;5021266;28;20397;-81
2022/10/14 11:20:24;;;;;;;7.82;6.57;;;;;;;;;;5030451;28;20436;-82
2022/10/14 11:22:57;;;;;;;9.65;7.13;;;;;;;;;;5024815;28;20473;-82
2022/10/14 11:25:25;;;;;;;8.57;6.45;;;;;;;;;;5014386;28;20321;-81
2022/10/14 11:28:02;;;;;;;8.27;6.53;;;;;;;;;;5030661;28;20045;-81
2022/10/14 11:30:48;;;;;;;7.53;5.93;;;;;;;;;;5033692;28;20056;-82
2022/10/14 11:33:33;;;;;;;9.18;6.55;;;;;;;;;;5040905;28;20045;-81
2022/10/14 11:36:02;;;;;;;9.18;6.50;;;;;;;;;;5032613;28;20077;-81
2022/10/14 11:38:31;;;;;;;9.48;6.72;;;;;;;;;;5033396;28;20052;-82
2022/10/14 11:41:01;;;;;;;9.02;6.90;;;;;;;;;;5022601;28;20103;-81
2022/10/14 11:43:32;;;;;;;8.57;7.13;;;;;;;;;;5024560;28;20052;-82
2022/10/14 11:46:07;;;;;;;9.95;7.28;;;;;;;;;;5031788;28;20046;-82
2022/10/14 11:48:51;;;;;;;11.60;7.75;;;;;;;;;;5029733;28;20042;-81
2022/10/14 11:51:29;;;;;;;11.15;7.40;;;;;;;;;;5029944;28;20458;-81
2022/10/14 11:54:10;;;;;;;10.10;7.40;;;;;;;;;;5030582;28;20096;-81
2022/10/14 11:56:36;;;;;;;9.23;7.28;;;;;;;;;;5024307;28;20060;-81
2022/10/14 11:59:05;;;;;;;9.52;7.55;;;;;;;;;;5030092;28;20132;-81
2022/10/14 12:01:33;;;;;;;10.65;7.53;;;;;;;;;;5024175;28;20073;-81
2022/10/14 12:04:03;;;;;;;11.27;7.60;;;;;;;;;;5021150;28;20602;-82
2022/10/14 12:06:33;;;;;;;11.30;7.63;;;;;;;;;;5026989;28;20046;-83
2022/10/14 12:09:14;;;;;;;9.57;7.50;;;;;;;;;;5025899;28;20048;-82
2022/10/14 12:11:45;;;;;;;9.55;7.07;;;;;;;;;;5030846;28;20060;-83
2022/10/14 12:14:38;;;;;;;10.20;7.75;;;;;;;;;;5030390;28;20048;-83
2022/10/14 12:17:06;;;;;;;9.57;7.57;;;;;;;;;;5026878;28;20060;-83
2022/10/14 12:19:33;;;;;;;11.15;8.68;;;;;;;;;;5031422;28;20139;-83
2022/10/14 12:22:07;;;;;;;9.05;7.38;;;;;;;;;;5032517;28;20051;-82
2022/10/14 12:24:38;;;;;;;10.95;8.68;;;;;;;;;;5025247;28;20053;-83
2022/10/14 12:27:05;;;;;;;11.38;8.63;;;;;;;;;;5025196;28;20052;-83
2022/10/14 12:29:33;;;;;;;12.48;8.98;;;;;;;;;;5021442;28;20046;-83
2022/10/14 12:31:59;;;;;;;10.90;8.70;;;;;;;;;;5027750;28;20053;-82
2022/10/14 12:34:31;;;;;;;11.70;8.77;;;;;;;;;;5029297;28;20048;-83
2022/10/14 12:36:57;;;;;;;9.88;7.57;;;;;;;;;;5014368;28;20049;-83
2022/10/14 12:39:31;;;;;;;10.30;8.30;;;;;;;;;;5026737;28;20041;-81
2022/10/14 12:41:57;;;;;;;12.88;8.57;;;;;;;;;;5028849;28;20539;-83
2022/10/14 12:44:31;;;;;;;9.13;8.10;;;;;;;;;;5030543;28;20087;-82
2022/10/14 12:46:57;;;;;;;9.77;8.07;;;;;;;;;;5030152;28;20088;-82
2022/10/14 12:49:28;;;;;;;10.10;7.80;;;;;;;;;;5032156;28;20040;-82
2022/10/14 12:51:55;;;;;;;8.70;7.43;;;;;;;;;;5029281;28;20072;-83
2022/10/14 12:54:22;;;;;;;9.55;7.53;;;;;;;;;;5031048;28;20095;-82
2022/10/14 12:56:57;;;;;;;8.88;7.10;;;;;;;;;;5017221;28;20116;-82
2022/10/14 12:59:26;;;;;;;8.80;6.70;;;;;;;;;;5029563;28;20046;-82
2022/10/14 13:02:16;;;;;;;7.93;6.55;;;;;;;;;;5027793;28;20452;-83
2022/10/14 13:04:52;;;;;;;8.30;5.95;;;;;;;;;;5021693;28;20049;-83
2022/10/14 13:07:18;;;;;;;6.68;5.75;;;;;;;;;;5030622;28;20366;-83
2022/10/14 13:09:45;;;;;;;10.10;6.30;;;;;;;;;;5023567;28;20049;-83
2022/10/14 13:12:31;;;;;;;6.82;5.90;;;;;;;;;;5030444;28;20041;-82
2022/10/14 13:14:57;;;;;;;7.07;5.93;;;;;;;;;;5018333;28;20056;-83
2022/10/14 13:17:42;;;;;;;6.68;5.63;;;;;;;;;;5030370;28;20045;-83
2022/10/14 13:20:26;;;;;;;6.32;5.63;;;;;;;;;;5024881;28;20049;-83
2022/10/14 13:22:52;;;;;;;6.28;5.40;;;;;;;;;;5011940;28;20406;-83
2022/10/14 13:25:20;;;;;;;6.10;5.50;;;;;;;;;;5013300;28;20401;-85
2022/10/14 13:27:55;;;;;;;5.68;4.97;;;;;;;;;;5027488;28;20053;-86
2022/10/14 13:30:43;;;;;;;6.07;5.28;;;;;;;;;;5030037;28;20049;-84
2022/10/14 13:33:12;;;;;;;6.10;5.10;;;;;;;;;;5010094;28;20050;-85
2022/10/14 13:35:47;;;;;;;5.75;4.80;;;;;;;;;;5020575;28;20091;-85
2022/10/14 13:38:18;;;;;;;5.38;4.88;;;;;;;;;;5013275;28;20045;-84
2022/10/14 13:40:46;;;;;;;4.97;4.47;;;;;;;;;;5028454;28;20068;-85
2022/10/14 13:43:21;;;;;;;6.72;5.05;;;;;;;;;;5019956;28;20046;-86
2022/10/14 13:45:48;;;;;;;5.00;4.50;;;;;;;;;;5020561;28;20393;-84
2022/10/14 13:48:37;;;;;;;6.13;5.22;;;;;;;;;;5029370;28;20102;-81
2022/10/14 13:51:18;;;;;;;6.18;5.22;;;;;;;;;;5018360;28;20068;-82
2022/10/14 13:53:51;;;;;;;6.45;5.70;;;;;;;;;;5029129;28;20140;-82
2022/10/14 13:56:22;;;;;;;6.55;5.50;;;;;;;;;;5028330;28;20041;-82
2022/10/14 13:58:48;;;;;;;6.68;5.28;;;;;;;;;;5030645;28;20095;-82
2022/10/14 14:01:14;;;;;;;6.63;5.80;;;;;;;;;;5028444;28;20045;-81
2022/10/14 14:03:44;;;;;;;6.82;6.13;;;;;;;;;;5032318;28;20042;-81
2022/10/14 14:06:12;;;;;;;7.53;6.72;;;;;;;;;;5025406;28;20046;-81
2022/10/14 14:08:44;;;;;;;8.90;7.07;;;;;;;;;;5009753;28;20041;-81
2022/10/14 14:11:15;;;;;;;8.98;7.03;;;;;;;;;;5024657;28;20052;-81
2022/10/14 14:13:47;;;;;;;9.07;7.20;;;;;;;;;;5028622;28;20596;-81
2022/10/14 14:16:33;;;;;;;8.43;7.55;;;;;;;;;;5017434;28;20407;-81
2022/10/14 14:18:59;;;;;;;9.50;8.05;;;;;;;;;;5020547;28;20041;-83
2022/10/14 14:21:26;;;;;;;9.63;8.63;;;;;;;;;;5029859;28;20132;-83
2022/10/14 14:23:54;;;;;;;11.23;9.02;;;;;;;;;;5028734;28;20045;-84
2022/10/14 14:26:23;;;;;;;12.82;9.90;;;;;;;;;;5027251;28;20468;-86
2022/10/14 14:28:49;;;;;;;14.80;11.00;;;;;;;;;;5038918;28;20485;-83
2022/10/14 14:31:17;;;;;;;12.85;10.85;;;;;;;;;;5023803;28;20048;-82
2022/10/14 14:33:43;;;;;;;12.07;10.52;;;;;;;;;;5014250;28;20489;-85
2022/10/14 14:36:20;;;;;;;14.30;11.30;;;;;;;;;;5017650;28;20053;-85
2022/10/14 14:38:57;;;;;;;14.05;11.23;;;;;;;;;;5015043;28;20089;-83
2022/10/14 14:41:32;;;;;;;13.65;11.30;;;;;;;;;;5027778;28;20501;-80
2022/10/14 14:44:01;;;;;;;13.52;10.60;;;;;;;;;;5022004;28;20053;-81